To NAV CANADA Home Page Login to a new session Search on AWWS site Feedback and Comments Disclaimer Vers la page française équivalente Tips FAQ What's new on the site To the Forecasts and Observations / NOTAM section To "File a Flight Plan" website Publications and other links Update of the User's profile FIC Telephone Numbers My Weather Data Folder Route Weather Data Regional Weather Data Local Weather Data To the Forecasts and Observations / NOTAM section
Request Generated 04/30/2017 at 05:02:17 UTC . Weather information available at that time is displayed.

METAR/TAF

SASKATOON/JOHN G. DIEFENBAKER INTL/SK    

METAR CYXE 300500Z 18007KT 120V190 15SM FEW090 SCT250 06/M03 A3002
RMK AC2CI2 SLP186=
METAR CYXE 300400Z 12003KT 15SM FEW080 SCT250 07/M02 A3002 RMK CU2CI2
SLP185=
METAR CYXE 300300Z 21003KT 15SM SCT250 09/M05 A3004 RMK CI3 SLP192=

TAF CYXE 292338Z 3000/3024 VRB03KT P6SM BKN080
BECMG 3002/3004 16008KT SCT080
FM300900 13008KT P6SM SKC PROB30 3009/3013 1SM BR
FM301600 13012KT P6SM SCT100 BKN200
FM302000 18010KT P6SM -SHRA OVC050
RMK NXT FCST BY 300600Z=
Your time UTC time
Weather data provided by Environment Canada and NAV CANADA